createdAt,value
2018-12-05T00:01:49.299Z,82.58
2018-12-05T00:04:18.399Z,82.79
2018-12-05T00:06:47.478Z,83.26
2018-12-05T00:09:16.571Z,82.91
2018-12-05T00:11:45.819Z,82.68
2018-12-05T00:14:15.008Z,82.59
2018-12-05T00:16:44.145Z,82.42
2018-12-05T00:19:13.238Z,82.63
2018-12-05T00:21:42.331Z,82.79
2018-12-05T00:24:11.433Z,83.10
2018-12-05T00:26:40.503Z,83.13
2018-12-05T00:29:09.607Z,83.04
2018-12-05T00:31:38.728Z,82.77
2018-12-05T00:34:07.794Z,82.54
2018-12-05T00:36:36.916Z,82.59
2018-12-05T00:39:08.604Z,82.89
2018-12-05T00:41:37.692Z,82.61
2018-12-05T00:44:06.735Z,83.14
2018-12-05T00:46:36.861Z,83.61
2018-12-05T00:49:05.975Z,83.69
2018-12-05T00:51:35.038Z,83.41
2018-12-05T00:54:04.225Z,83.51
2018-12-05T00:56:33.270Z,83.68
2018-12-05T00:59:02.488Z,83.85
2018-12-05T01:01:31.692Z,83.48
2018-12-05T01:04:00.823Z,83.76
2018-12-05T01:06:29.887Z,83.88
2018-12-05T01:08:58.955Z,83.71
2018-12-05T01:11:28.024Z,83.72
2018-12-05T01:13:57.065Z,83.37
2018-12-05T01:16:26.188Z,83.66
2018-12-05T01:18:56.589Z,83.90
2018-12-05T01:21:25.633Z,83.95
2018-12-05T01:23:54.767Z,83.27
2018-12-05T01:26:23.860Z,83.05
2018-12-05T01:28:52.963Z,82.81
2018-12-05T01:31:22.053Z,82.77
2018-12-05T01:33:51.117Z,82.75
2018-12-05T01:36:20.202Z,82.91
2018-12-05T01:38:49.260Z,83.32
2018-12-05T01:41:18.356Z,83.58
2018-12-05T01:43:47.419Z,83.19
2018-12-05T01:46:16.550Z,83.34
2018-12-05T01:48:45.696Z,83.15
2018-12-05T01:51:14.731Z,83.47
2018-12-05T01:53:43.827Z,83.00
2018-12-05T01:56:12.896Z,83.15
2018-12-05T01:58:41.980Z,83.10
2018-12-05T02:01:11.040Z,82.71
2018-12-05T02:03:40.192Z,82.72
2018-12-05T02:06:09.276Z,82.69
2018-12-05T02:08:38.336Z,82.92
2018-12-05T02:11:07.448Z,82.87
2018-12-05T02:13:36.565Z,83.08
2018-12-05T02:16:05.596Z,82.38
2018-12-05T02:18:34.764Z,82.92
2018-12-05T02:21:03.856Z,82.40
2018-12-05T02:23:32.938Z,82.75
2018-12-05T02:26:02.125Z,83.01
2018-12-05T02:28:31.238Z,83.25
2018-12-05T02:31:00.627Z,83.65
2018-12-05T02:33:29.687Z,83.77
2018-12-05T02:35:58.773Z,83.68
2018-12-05T02:38:27.818Z,83.62
2018-12-05T02:40:56.868Z,84.06
2018-12-05T02:43:25.960Z,83.60
2018-12-05T02:45:55.025Z,83.60
2018-12-05T02:48:24.144Z,83.83
2018-12-05T02:50:53.232Z,83.75
2018-12-05T02:53:22.302Z,84.03
2018-12-05T02:55:51.341Z,83.75
2018-12-05T02:58:20.389Z,83.90
2018-12-05T03:00:49.479Z,83.85
2018-12-05T03:03:18.513Z,83.33
2018-12-05T03:05:47.615Z,83.37
2018-12-05T03:08:16.709Z,83.19
2018-12-05T03:10:45.873Z,83.08
2018-12-05T03:13:14.921Z,83.07
2018-12-05T03:15:44.022Z,82.83
2018-12-05T03:18:13.120Z,83.09
2018-12-05T03:20:42.193Z,83.36
2018-12-05T03:23:11.263Z,83.03
2018-12-05T03:25:40.373Z,83.57
2018-12-05T03:28:09.491Z,83.13
2018-12-05T03:30:38.571Z,83.54
2018-12-05T03:33:07.660Z,83.59
2018-12-05T03:35:38.824Z,83.08
2018-12-05T03:38:07.908Z,83.48
2018-12-05T03:40:36.975Z,83.18
2018-12-05T03:43:05.967Z,83.48
2018-12-05T03:45:35.075Z,83.14
2018-12-05T03:48:04.194Z,82.65
2018-12-05T03:50:33.240Z,82.98
2018-12-05T03:53:02.319Z,82.75
2018-12-05T03:55:34.207Z,82.70
2018-12-05T03:58:03.259Z,81.92
2018-12-05T04:00:32.355Z,82.00
2018-12-05T04:03:01.367Z,82.67
2018-12-05T04:05:31.552Z,81.86
2018-12-05T04:08:00.643Z,82.74
2018-12-05T04:10:29.627Z,83.07
2018-12-05T04:12:58.719Z,83.39
2018-12-05T04:15:27.722Z,83.90
2018-12-05T04:17:58.942Z,83.69
2018-12-05T04:20:28.011Z,83.88
2018-12-05T04:22:57.086Z,83.88
2018-12-05T04:25:26.157Z,83.95
2018-12-05T04:27:55.289Z,83.87
2018-12-05T04:30:24.341Z,83.97
2018-12-05T04:32:53.388Z,83.69
2018-12-05T04:35:22.395Z,83.10
2018-12-05T04:37:52.721Z,82.35
2018-12-05T04:40:21.927Z,82.20
2018-12-05T04:42:51.362Z,82.03
2018-12-05T04:45:20.711Z,82.66
2018-12-05T04:47:49.787Z,83.56
2018-12-05T04:50:18.839Z,84.28
2018-12-05T04:52:47.932Z,84.00
2018-12-05T04:55:17.004Z,83.97
2018-12-05T04:57:46.134Z,84.08
2018-12-05T05:00:15.153Z,83.94
2018-12-05T05:02:44.325Z,83.46
2018-12-05T05:05:13.400Z,83.46
2018-12-05T05:07:42.452Z,83.57
2018-12-05T05:10:13.523Z,83.45
2018-12-05T05:12:42.595Z,83.93
2018-12-05T05:15:11.654Z,83.58
2018-12-05T05:17:40.739Z,83.19
2018-12-05T05:20:09.879Z,83.36
2018-12-05T05:22:38.937Z,83.74
2018-12-05T05:25:08.038Z,83.95
2018-12-05T05:27:37.622Z,83.83
2018-12-05T05:30:06.702Z,83.98
2018-12-05T05:32:35.767Z,83.89
2018-12-05T05:35:07.512Z,84.16
2018-12-05T05:37:36.572Z,83.91
2018-12-05T05:40:05.929Z,83.42
2018-12-05T05:42:37.810Z,83.22
2018-12-05T05:45:07.217Z,83.61
2018-12-05T05:47:36.367Z,84.13
2018-12-05T05:50:05.618Z,84.20
2018-12-05T05:52:34.896Z,84.55
2018-12-05T05:55:03.998Z,84.51
2018-12-05T05:57:34.332Z,84.62
2018-12-05T06:00:04.298Z,84.54
2018-12-05T06:02:33.355Z,84.04
2018-12-05T06:05:02.398Z,83.91
2018-12-05T06:07:31.442Z,84.34
2018-12-05T06:10:00.559Z,84.19
2018-12-05T06:12:36.969Z,84.53
2018-12-05T06:15:07.676Z,84.22
2018-12-05T06:17:36.834Z,84.18
2018-12-05T06:20:05.911Z,84.54
2018-12-05T06:22:37.766Z,84.40
2018-12-05T06:25:07.003Z,84.30
2018-12-05T06:27:36.267Z,83.79
2018-12-05T06:30:05.910Z,82.45
2018-12-05T06:32:37.781Z,81.33
2018-12-05T06:35:06.877Z,82.27
2018-12-05T06:37:36.522Z,82.94
2018-12-05T06:40:05.928Z,83.38
2018-12-05T06:42:35.016Z,83.73
2018-12-05T06:45:05.318Z,83.87
2018-12-05T06:47:34.478Z,83.86
2018-12-05T06:50:03.568Z,84.46
2018-12-05T06:52:32.635Z,83.62
2018-12-05T06:55:01.634Z,84.07
2018-12-05T06:57:30.716Z,83.96
2018-12-05T06:59:59.781Z,83.98
2018-12-05T07:02:28.951Z,84.31
2018-12-05T07:04:57.998Z,84.21
2018-12-05T07:07:27.022Z,84.17
2018-12-05T07:09:56.070Z,83.91
2018-12-05T07:12:25.077Z,83.92
2018-12-05T07:14:54.506Z,83.88
2018-12-05T07:17:23.548Z,83.84
2018-12-05T07:19:52.649Z,83.70
2018-12-05T07:22:21.720Z,83.52
2018-12-05T07:24:50.930Z,83.83
2018-12-05T07:27:20.052Z,83.60
2018-12-05T07:29:49.114Z,83.85
2018-12-05T07:32:18.211Z,83.56
2018-12-05T07:34:47.288Z,83.96
2018-12-05T07:37:16.320Z,83.96
2018-12-05T07:39:45.359Z,83.96
2018-12-05T07:42:14.410Z,84.00
2018-12-05T07:44:43.434Z,84.00
2018-12-05T07:47:13.551Z,84.09
2018-12-05T07:49:43.317Z,84.06
2018-12-05T07:52:12.356Z,83.80
2018-12-05T07:54:41.746Z,83.83
2018-12-05T07:57:10.839Z,83.80
2018-12-05T07:59:39.902Z,83.74
2018-12-05T08:02:08.922Z,83.47
2018-12-05T08:04:37.998Z,83.62
2018-12-05T08:07:07.104Z,83.92
2018-12-05T08:09:36.140Z,83.64
2018-12-05T08:12:05.193Z,83.91
2018-12-05T08:14:34.257Z,83.92
2018-12-05T08:17:04.589Z,84.00
2018-12-05T08:19:34.177Z,83.86
2018-12-05T08:22:03.333Z,83.84
2018-12-05T08:24:32.429Z,83.86
2018-12-05T08:27:01.487Z,83.48
2018-12-05T08:29:31.454Z,83.27
2018-12-05T08:32:00.566Z,83.25
2018-12-05T08:34:29.682Z,83.48
2018-12-05T08:36:58.763Z,83.52
2018-12-05T08:39:27.845Z,83.42
2018-12-05T08:41:56.987Z,83.35
2018-12-05T08:44:26.744Z,83.33
2018-12-05T08:46:55.807Z,83.40
2018-12-05T08:49:24.920Z,83.28
2018-12-05T08:51:53.960Z,83.21
2018-12-05T08:54:25.161Z,83.37
2018-12-05T08:56:54.249Z,82.94
2018-12-05T08:59:23.379Z,82.40
2018-12-05T09:01:52.472Z,82.10
2018-12-05T09:04:21.548Z,82.34
2018-12-05T09:06:50.617Z,82.14
2018-12-05T09:09:19.704Z,81.97
2018-12-05T09:11:48.820Z,82.10
2018-12-05T09:14:19.508Z,82.04
2018-12-05T09:16:48.587Z,81.97
2018-12-05T09:19:17.671Z,82.26
2018-12-05T09:21:46.725Z,82.17
2018-12-05T09:24:15.819Z,82.07
2018-12-05T09:26:44.911Z,81.92
2018-12-05T09:29:13.963Z,81.95
2018-12-05T09:31:43.058Z,82.34
2018-12-05T09:34:12.181Z,82.13
2018-12-05T09:36:42.292Z,81.77
2018-12-05T09:39:11.070Z,81.62
2018-12-05T09:41:40.242Z,81.38
2018-12-05T09:44:09.299Z,81.16
2018-12-05T09:46:38.384Z,80.96
2018-12-05T09:49:07.442Z,80.00
2018-12-05T09:51:36.506Z,79.61
2018-12-05T09:54:05.556Z,79.65
2018-12-05T09:56:34.614Z,77.84
2018-12-05T09:59:03.712Z,77.01
2018-12-05T10:01:32.779Z,76.71
2018-12-05T10:04:01.847Z,76.17
2018-12-05T10:06:30.914Z,76.77
2018-12-05T10:08:59.994Z,76.59
2018-12-05T10:11:29.066Z,76.75
2018-12-05T10:13:58.141Z,77.42
2018-12-05T10:16:27.190Z,76.95
2018-12-05T10:18:56.301Z,78.00
2018-12-05T10:21:25.386Z,77.45
2018-12-05T10:23:54.448Z,76.80
2018-12-05T10:26:23.512Z,77.79
2018-12-05T10:28:52.600Z,77.61
2018-12-05T10:31:21.692Z,78.19
2018-12-05T10:33:50.774Z,78.36
2018-12-05T10:36:19.942Z,77.96
2018-12-05T10:38:49.052Z,77.89
2018-12-05T10:41:18.112Z,77.82
2018-12-05T10:43:47.170Z,77.83
2018-12-05T10:46:16.282Z,77.80
2018-12-05T10:48:45.346Z,77.38
2018-12-05T10:51:14.441Z,78.16
2018-12-05T10:53:44.169Z,77.79
2018-12-05T10:56:13.227Z,77.99
2018-12-05T10:58:42.321Z,78.05
2018-12-05T11:01:16.652Z,78.08
2018-12-05T11:03:45.761Z,77.73
2018-12-05T11:06:19.910Z,78.06
2018-12-05T11:08:54.438Z,77.98
2018-12-05T11:11:30.598Z,77.96
2018-12-05T11:14:05.181Z,77.06
2018-12-05T11:16:41.457Z,77.11
2018-12-05T11:19:15.898Z,76.86
2018-12-05T11:21:50.432Z,76.80
2018-12-05T11:24:25.044Z,77.06
2018-12-05T11:26:55.056Z,77.06
2018-12-05T11:29:24.147Z,76.88
2018-12-05T11:31:53.264Z,76.27
2018-12-05T11:34:28.304Z,76.32
2018-12-05T11:36:57.393Z,76.50
2018-12-05T11:39:26.477Z,76.21
2018-12-05T11:41:55.627Z,76.33
2018-12-05T11:44:24.735Z,76.34
2018-12-05T11:46:53.837Z,76.63
2018-12-05T11:49:22.907Z,76.26
2018-12-05T11:51:52.859Z,76.55
2018-12-05T11:54:22.277Z,76.84
2018-12-05T11:56:51.472Z,76.76
2018-12-05T11:59:20.543Z,76.63
2018-12-05T12:01:49.612Z,76.81
2018-12-05T12:04:18.742Z,76.69
2018-12-05T12:06:48.635Z,76.78
2018-12-05T12:09:17.696Z,77.00
2018-12-05T12:11:46.822Z,76.60
2018-12-05T12:14:16.005Z,76.28
2018-12-05T12:16:45.116Z,75.99
2018-12-05T12:19:14.184Z,76.07
2018-12-05T12:21:45.897Z,76.46
2018-12-05T12:24:17.083Z,75.89
2018-12-05T12:26:48.947Z,76.45
2018-12-05T12:29:18.037Z,75.98
2018-12-05T12:31:47.200Z,76.10
2018-12-05T12:34:16.428Z,76.47
2018-12-05T12:36:47.658Z,76.80
2018-12-05T12:39:16.726Z,76.51
2018-12-05T12:41:46.337Z,76.50
2018-12-05T12:44:15.495Z,76.90
2018-12-05T12:46:44.599Z,76.63
2018-12-05T12:49:14.162Z,76.68
2018-12-05T12:51:43.289Z,77.12
2018-12-05T12:54:12.474Z,76.67
2018-12-05T12:56:44.527Z,76.29
2018-12-05T12:59:13.611Z,76.69
2018-12-05T13:01:42.645Z,76.52
2018-12-05T13:04:11.767Z,76.41
2018-12-05T13:06:40.904Z,76.28
2018-12-05T13:09:10.053Z,76.57
2018-12-05T13:11:39.202Z,76.27
2018-12-05T13:14:08.254Z,76.32
2018-12-05T13:16:37.363Z,76.35
2018-12-05T13:19:06.557Z,76.07
2018-12-05T13:21:36.581Z,75.79
2018-12-05T13:24:07.287Z,75.43
2018-12-05T13:26:36.400Z,75.21
2018-12-05T13:29:05.543Z,75.13
2018-12-05T13:31:34.613Z,75.89
2018-12-05T13:34:03.739Z,75.85
2018-12-05T13:36:32.888Z,75.82
2018-12-05T13:39:02.143Z,75.87
2018-12-05T13:41:31.235Z,75.88
2018-12-05T13:44:00.444Z,76.23
2018-12-05T13:46:30.159Z,75.85
2018-12-05T13:48:59.544Z,75.90
2018-12-05T13:51:28.661Z,76.00
2018-12-05T13:53:57.782Z,76.65
2018-12-05T13:56:26.873Z,77.08
2018-12-05T13:58:55.993Z,77.27
2018-12-05T14:01:25.614Z,77.58
2018-12-05T14:03:55.541Z,77.94
2018-12-05T14:06:24.620Z,78.17
2018-12-05T14:08:54.813Z,78.48
2018-12-05T14:11:24.541Z,78.64
2018-12-05T14:13:53.602Z,78.42
2018-12-05T14:16:22.699Z,78.31
2018-12-05T14:18:51.816Z,78.04
2018-12-05T14:21:20.914Z,78.63
2018-12-05T14:23:53.163Z,79.33
2018-12-05T14:26:22.309Z,79.47
2018-12-05T14:28:51.469Z,79.55
2018-12-05T14:31:20.574Z,79.43
2018-12-05T14:33:49.756Z,79.59
2018-12-05T14:36:18.926Z,79.77
2018-12-05T14:38:48.056Z,79.95
2018-12-05T14:41:17.179Z,80.14
2018-12-05T14:43:46.316Z,80.20
2018-12-05T14:46:15.417Z,80.58
2018-12-05T14:48:44.559Z,80.68
2018-12-05T14:51:13.670Z,80.96
2018-12-05T14:53:42.770Z,81.30
2018-12-05T14:56:11.919Z,81.60
2018-12-05T14:58:40.995Z,81.53
2018-12-05T15:01:10.147Z,81.61
2018-12-05T15:03:39.199Z,82.03
2018-12-05T15:06:08.282Z,81.86
2018-12-05T15:08:37.428Z,81.93
2018-12-05T15:11:09.709Z,82.00
2018-12-05T15:13:38.816Z,82.19
2018-12-05T15:16:07.942Z,82.18
2018-12-05T15:18:37.025Z,82.41
2018-12-05T15:21:06.193Z,82.76
2018-12-05T15:23:35.371Z,82.80
2018-12-05T15:26:05.529Z,83.01
2018-12-05T15:28:34.782Z,82.72
2018-12-05T15:31:04.007Z,82.78
2018-12-05T15:33:33.113Z,82.90
2018-12-05T15:36:02.200Z,83.03
2018-12-05T15:38:31.331Z,82.85
2018-12-05T15:41:00.431Z,83.33
2018-12-05T15:43:29.506Z,83.49
2018-12-05T15:45:58.645Z,83.31
2018-12-05T15:48:28.246Z,83.61
2018-12-05T15:50:57.359Z,83.64
2018-12-05T15:53:26.402Z,83.46
2018-12-05T15:55:55.539Z,83.52
2018-12-05T15:58:24.653Z,83.47
2018-12-05T16:00:53.688Z,83.52
2018-12-05T16:03:22.761Z,83.24
2018-12-05T16:05:51.953Z,83.37
2018-12-05T16:08:21.108Z,83.03
2018-12-05T16:10:50.896Z,83.27
2018-12-05T16:13:19.976Z,83.24
2018-12-05T16:15:49.033Z,83.45
2018-12-05T16:18:18.146Z,83.22
2018-12-05T16:20:47.247Z,83.09
2018-12-05T16:23:17.133Z,82.93
2018-12-05T16:25:46.253Z,83.01
2018-12-05T16:28:15.412Z,83.07
2018-12-05T16:30:44.544Z,83.15
2018-12-05T16:33:13.673Z,83.19
2018-12-05T16:35:43.457Z,83.24
2018-12-05T16:38:12.512Z,83.35
2018-12-05T16:40:41.593Z,83.22
2018-12-05T16:43:12.156Z,83.12
2018-12-05T16:45:41.305Z,83.02
2018-12-05T16:48:10.391Z,83.22
2018-12-05T16:50:39.518Z,83.35
2018-12-05T16:53:09.861Z,83.24
2018-12-05T16:55:38.946Z,82.89
2018-12-05T16:58:08.047Z,82.83
2018-12-05T17:00:37.179Z,82.60
2018-12-05T17:03:06.258Z,82.35
2018-12-05T17:05:35.384Z,82.26
2018-12-05T17:08:04.450Z,82.21
2018-12-05T17:10:33.558Z,82.30
2018-12-05T17:13:02.985Z,82.19
2018-12-05T17:15:32.104Z,82.12
2018-12-05T17:18:01.248Z,81.69
2018-12-05T17:20:30.367Z,81.75
2018-12-05T17:22:59.476Z,81.60
2018-12-05T17:25:28.616Z,81.23
2018-12-05T17:27:57.815Z,80.89
2018-12-05T17:30:27.797Z,80.36
2018-12-05T17:32:56.967Z,80.19
2018-12-05T17:35:26.055Z,80.09
2018-12-05T17:37:55.143Z,79.96
2018-12-05T17:40:24.285Z,79.65
2018-12-05T17:42:53.341Z,79.01
2018-12-05T17:45:22.443Z,79.21
2018-12-05T17:47:51.554Z,78.92
2018-12-05T17:50:20.612Z,78.83
2018-12-05T17:52:49.701Z,78.62
2018-12-05T17:55:18.802Z,78.36
2018-12-05T17:57:47.903Z,78.06
2018-12-05T18:00:16.981Z,78.04
2018-12-05T18:02:46.094Z,77.84
2018-12-05T18:05:15.214Z,77.70
2018-12-05T18:07:44.263Z,77.90
2018-12-05T18:10:14.341Z,77.35
2018-12-05T18:12:43.384Z,77.55
2018-12-05T18:15:12.440Z,77.43
2018-12-05T18:17:41.504Z,76.88
2018-12-05T18:20:12.589Z,76.72
2018-12-05T18:22:41.703Z,76.21
2018-12-05T18:25:10.803Z,76.15
2018-12-05T18:27:39.895Z,76.02
2018-12-05T18:30:09.737Z,75.63
2018-12-05T18:32:38.796Z,75.65
2018-12-05T18:35:07.862Z,75.49
2018-12-05T18:37:36.953Z,75.66
2018-12-05T18:40:06.056Z,75.46
2018-12-05T18:42:35.521Z,75.37
2018-12-05T18:45:04.726Z,75.38
2018-12-05T18:47:33.843Z,75.65
2018-12-05T18:50:03.076Z,75.49
2018-12-05T18:52:32.191Z,74.81
2018-12-05T18:55:01.264Z,74.53
2018-12-05T18:57:30.442Z,74.66
2018-12-05T19:00:01.421Z,74.59
2018-12-05T19:02:30.845Z,74.63
2018-12-05T19:04:59.921Z,75.04
2018-12-05T19:07:36.921Z,74.90
2018-12-05T19:10:16.036Z,75.33
2018-12-05T19:12:48.190Z,74.76
2018-12-05T19:15:17.359Z,73.92
2018-12-05T19:17:47.268Z,73.69
2018-12-05T19:20:16.432Z,74.49
2018-12-05T19:22:45.618Z,74.59
2018-12-05T19:25:16.829Z,73.96
2018-12-05T19:27:46.027Z,74.17
2018-12-05T19:30:16.566Z,73.77
2018-12-05T19:32:45.916Z,73.72
2018-12-05T19:35:15.190Z,73.84
2018-12-05T19:37:44.447Z,74.16
2018-12-05T19:40:13.730Z,73.57
2018-12-05T19:42:43.051Z,73.59
2018-12-05T19:45:12.272Z,73.39
2018-12-05T19:47:41.619Z,73.73
2018-12-05T19:50:10.809Z,73.37
2018-12-05T19:52:40.094Z,73.41
2018-12-05T19:55:09.672Z,72.93
2018-12-05T19:57:39.147Z,72.74
2018-12-05T20:00:10.134Z,73.25
2018-12-05T20:02:39.636Z,73.47
2018-12-05T20:05:08.819Z,73.18
2018-12-05T20:07:38.815Z,73.04
2018-12-05T20:10:08.062Z,73.45
2018-12-05T20:12:37.352Z,73.36
2018-12-05T20:15:07.022Z,72.95
2018-12-05T20:17:36.618Z,73.17
2018-12-05T20:20:06.478Z,73.04
2018-12-05T20:22:36.081Z,73.29
2018-12-05T20:25:05.633Z,73.35
2018-12-05T20:27:36.552Z,73.49
2018-12-05T20:30:07.094Z,73.34
2018-12-05T20:32:36.735Z,73.50
2018-12-05T20:35:06.014Z,73.93
2018-12-05T20:37:35.519Z,73.91
2018-12-05T20:40:05.516Z,74.24
2018-12-05T20:42:34.899Z,73.74
2018-12-05T20:48:12.157Z,73.99
2018-12-05T20:50:41.434Z,73.64
2018-12-05T20:53:10.743Z,73.76
2018-12-05T20:55:39.883Z,73.80
2018-12-05T20:58:09.195Z,73.75
2018-12-05T21:00:38.407Z,73.91
2018-12-05T21:03:07.660Z,73.86
2018-12-05T21:05:36.845Z,73.99
2018-12-05T21:08:06.208Z,74.20
2018-12-05T21:10:45.992Z,74.13
2018-12-05T21:13:15.137Z,74.22
2018-12-05T21:15:44.820Z,74.47
2018-12-05T21:18:18.451Z,74.42
2018-12-05T21:20:47.665Z,74.57
2018-12-05T21:23:17.283Z,74.31
2018-12-05T21:25:46.417Z,74.04
2018-12-05T21:28:20.213Z,74.29
2018-12-05T21:30:52.228Z,74.53
2018-12-05T21:33:21.406Z,74.43
2018-12-05T21:35:50.531Z,74.56
2018-12-05T21:38:20.846Z,74.28
2018-12-05T21:40:49.848Z,74.20
2018-12-05T21:43:18.972Z,73.78
2018-12-05T21:45:48.088Z,73.93
2018-12-05T21:48:17.297Z,74.03
2018-12-05T21:50:46.359Z,73.88
2018-12-05T21:53:15.404Z,74.05
2018-12-05T21:55:44.486Z,74.16
2018-12-05T21:58:13.559Z,74.06
2018-12-05T22:00:42.672Z,73.64
2018-12-05T22:03:11.739Z,73.71
2018-12-05T22:05:42.797Z,73.79
2018-12-05T22:08:11.875Z,74.07
2018-12-05T22:10:41.019Z,73.98
2018-12-05T22:13:10.068Z,74.52
2018-12-05T22:15:39.244Z,75.37
2018-12-05T22:18:08.269Z,75.09
2018-12-05T22:20:37.350Z,75.65
2018-12-05T22:23:06.426Z,75.54
2018-12-05T22:25:35.468Z,75.72
2018-12-05T22:28:04.579Z,76.88
2018-12-05T22:30:33.643Z,76.87
2018-12-05T22:33:03.781Z,76.64
2018-12-05T22:35:32.843Z,77.22
2018-12-05T22:38:02.026Z,77.82
2018-12-05T22:40:31.110Z,77.60
2018-12-05T22:43:01.470Z,77.79
2018-12-05T22:45:30.631Z,77.93
2018-12-05T22:47:59.691Z,77.53
2018-12-05T22:50:28.681Z,77.70
2018-12-05T22:52:57.908Z,78.14
2018-12-05T22:55:27.023Z,78.46
2018-12-05T22:57:56.135Z,78.83
2018-12-05T23:00:26.075Z,78.59
2018-12-05T23:02:55.151Z,78.29
2018-12-05T23:05:24.371Z,77.92
2018-12-05T23:07:53.391Z,77.64
2018-12-05T23:10:22.383Z,77.61
2018-12-05T23:12:51.472Z,77.51
2018-12-05T23:15:20.601Z,77.72
2018-12-05T23:17:49.627Z,77.89
2018-12-05T23:20:18.696Z,78.10
2018-12-05T23:22:47.729Z,78.33
2018-12-05T23:25:16.756Z,78.26
2018-12-05T23:27:45.881Z,78.62
2018-12-05T23:30:14.930Z,78.47
2018-12-05T23:32:43.936Z,78.38
2018-12-05T23:35:12.983Z,78.23
2018-12-05T23:37:42.034Z,78.73
2018-12-05T23:40:11.180Z,78.51
2018-12-05T23:42:40.277Z,78.43
2018-12-05T23:45:09.521Z,78.54
2018-12-05T23:47:38.707Z,78.79
2018-12-05T23:50:09.539Z,79.17
2018-12-05T23:52:39.887Z,78.96
2018-12-05T23:55:10.056Z,79.10
2018-12-05T23:57:39.266Z,79.10
